EYPA/PLQ METAR and TAF weather

Enter ICAO airport designator
Station Type Date Time Source
EYPA METAR 2020/09/27 16:20 UTC NOAA

EYPA 271620Z 07006KT 040V100 CAVOK 21/11 Q1007


Station Type Date Time Source
EYPA Decoded METAR 2020/09/27 16:20 UTC NOAA

Palanga Intl., Lithuania (EYPA) 55-55-12N 021-03E
Sep 27, 2020 - 12:20 PM EDT / 2020.09.27 1620 UTC
Wind: from the ENE (070 degrees) at 7 MPH (6 KT) (direction variable):0
Visibility: greater than 7 mile(s):0
Temperature: 69 F (21 C)
Dew Point: 51 F (11 C)
Relative Humidity: 52%
Pressure (altimeter): 29.74 in. Hg (1007 hPa)
ob: EYPA 271620Z 07006KT 040V100 CAVOK 21/11 Q1007
cycle: 16

Station Type Date Time Source
EYPA TAF 2020/09/27 12:03 UTC NOAA

TAF EYPA 271102Z 2712/2812 08010G20KT CAVOK
BECMG 2718/2719 9000 BKN030
BECMG 2720/2721 14010KT
TEMPO 2721/2806 3000 SHRA BKN005 BKN015CB
BECMG 2806/2807 22010KT
BECMG 2808/2809 NSC

Example: see airport list